Time;durP1;ratioP1;P1;durP2;ratioP2;P2;SDS_P1;SDS_P2;PMS_P1;PMS_P2;Temp;Humidity;BMP_temperature;BMP_pressure;BME280_temperature;BME280_humidity;BME280_pressure;Samples;Min_cycle;Max_cycle;Signal;HPM_P1;HPM_P2
2023/09/01 00:00:12;;;;;;;1.85;0.90;;;;;;;;;;5026180;28;20056;-62
2023/09/01 00:02:38;;;;;;;1.25;1.00;;;;;;;;;;5024385;28;20049;-62
2023/09/01 00:05:05;;;;;;;1.55;1.15;;;;;;;;;;5025051;28;20053;-62
2023/09/01 00:07:31;;;;;;;1.10;1.00;;;;;;;;;;5026541;28;20044;-62
2023/09/01 00:09:57;;;;;;;1.75;1.23;;;;;;;;;;5026182;28;20686;-62
2023/09/01 00:12:23;;;;;;;1.00;0.90;;;;;;;;;;5024291;28;20086;-62
2023/09/01 00:14:49;;;;;;;1.20;0.90;;;;;;;;;;5025327;28;20045;-62
2023/09/01 00:17:15;;;;;;;0.98;0.93;;;;;;;;;;5025369;28;20045;-62
2023/09/01 00:19:41;;;;;;;1.15;1.00;;;;;;;;;;5023571;28;20490;-62
2023/09/01 00:22:07;;;;;;;1.52;1.00;;;;;;;;;;5023979;28;20042;-62
2023/09/01 00:24:33;;;;;;;2.03;0.85;;;;;;;;;;5026392;28;20041;-62
2023/09/01 00:27:01;;;;;;;1.08;0.98;;;;;;;;;;5024766;28;20667;-62
2023/09/01 00:29:27;;;;;;;1.15;1.00;;;;;;;;;;5024859;28;20255;-62
2023/09/01 00:31:53;;;;;;;1.20;1.10;;;;;;;;;;5022943;28;20088;-62
2023/09/01 00:34:19;;;;;;;1.35;1.17;;;;;;;;;;5025672;28;20047;-62
2023/09/01 00:36:49;;;;;;;1.15;1.05;;;;;;;;;;5025110;28;20067;-62
2023/09/01 00:39:15;;;;;;;0.85;0.85;;;;;;;;;;5026665;28;20095;-62
2023/09/01 00:41:41;;;;;;;1.30;1.20;;;;;;;;;;5025088;28;20092;-62
2023/09/01 00:44:08;;;;;;;1.13;1.02;;;;;;;;;;5022932;28;20084;-62
2023/09/01 00:46:35;;;;;;;1.13;1.02;;;;;;;;;;5025051;28;20068;-62
2023/09/01 00:49:01;;;;;;;1.17;1.10;;;;;;;;;;5024419;28;20317;-61
2023/09/01 00:51:28;;;;;;;1.30;1.05;;;;;;;;;;5025272;28;20133;-61
2023/09/01 00:53:54;;;;;;;1.20;1.10;;;;;;;;;;5024662;28;20674;-61
2023/09/01 00:56:20;;;;;;;1.17;1.00;;;;;;;;;;5026125;28;20037;-61
2023/09/01 00:58:46;;;;;;;1.83;1.15;;;;;;;;;;5025282;28;20140;-62
2023/09/01 01:01:12;;;;;;;1.10;1.00;;;;;;;;;;5023060;28;20120;-62
2023/09/01 01:03:39;;;;;;;1.33;1.20;;;;;;;;;;5025438;28;20107;-61
2023/09/01 01:06:24;;;;;;;1.50;1.40;;;;;;;;;;5025442;28;20128;-61
2023/09/01 01:08:57;;;;;;;1.10;1.00;;;;;;;;;;5022528;28;20069;-61
2023/09/01 01:11:43;;;;;;;1.35;1.17;;;;;;;;;;5024314;28;20045;-61
2023/09/01 01:14:15;;;;;;;1.27;1.17;;;;;;;;;;5025165;28;20567;-62
2023/09/01 01:16:41;;;;;;;1.17;1.08;;;;;;;;;;5025113;28;20095;-62
2023/09/01 01:19:15;;;;;;;1.15;1.05;;;;;;;;;;5023607;28;20126;-62
2023/09/01 01:21:42;;;;;;;1.63;1.08;;;;;;;;;;5022367;28;20044;-62
2023/09/01 01:24:08;;;;;;;1.95;1.00;;;;;;;;;;5024979;28;20048;-62
2023/09/01 01:26:36;;;;;;;1.40;1.20;;;;;;;;;;5024105;28;20122;-62
2023/09/01 01:29:02;;;;;;;1.00;0.90;;;;;;;;;;5025139;28;20037;-62
2023/09/01 01:31:28;;;;;;;1.90;1.20;;;;;;;;;;5023805;28;20038;-62
2023/09/01 01:34:04;;;;;;;1.88;1.08;;;;;;;;;;5024369;28;20123;-62
2023/09/01 01:36:36;;;;;;;1.70;1.30;;;;;;;;;;5025054;28;20128;-62
2023/09/01 01:39:05;;;;;;;1.88;1.30;;;;;;;;;;5025072;28;20040;-62
2023/09/01 01:41:41;;;;;;;0.98;0.88;;;;;;;;;;5025175;28;20552;-62
2023/09/01 01:44:07;;;;;;;0.88;0.88;;;;;;;;;;5024072;28;20033;-62
2023/09/01 01:46:34;;;;;;;2.15;0.90;;;;;;;;;;5024814;28;20081;-62
2023/09/01 01:49:00;;;;;;;1.20;1.10;;;;;;;;;;5025064;28;20640;-62
2023/09/01 01:51:26;;;;;;;1.42;1.33;;;;;;;;;;5025104;28;20056;-62
2023/09/01 01:53:52;;;;;;;1.88;0.90;;;;;;;;;;5023795;28;20126;-62
2023/09/01 01:56:18;;;;;;;1.40;1.00;;;;;;;;;;5024956;28;20041;-61
2023/09/01 01:58:44;;;;;;;1.13;0.98;;;;;;;;;;5022668;28;20548;-61
2023/09/01 02:01:10;;;;;;;1.58;0.90;;;;;;;;;;5024811;28;20227;-62
2023/09/01 02:03:36;;;;;;;1.38;1.25;;;;;;;;;;5022898;28;20057;-61
2023/09/01 02:06:02;;;;;;;1.08;0.98;;;;;;;;;;5023601;28;20080;-61
2023/09/01 02:08:28;;;;;;;1.02;0.60;;;;;;;;;;5024109;28;20040;-61
2023/09/01 02:10:55;;;;;;;0.85;0.70;;;;;;;;;;5024007;28;20041;-61
2023/09/01 02:13:21;;;;;;;1.25;1.15;;;;;;;;;;5022960;28;20041;-62
2023/09/01 02:15:53;;;;;;;1.00;0.70;;;;;;;;;;5023867;28;20654;-62
2023/09/01 02:18:20;;;;;;;0.88;0.80;;;;;;;;;;5024056;28;20076;-62
2023/09/01 02:20:46;;;;;;;1.23;0.90;;;;;;;;;;5023423;28;20128;-62
2023/09/01 02:23:19;;;;;;;1.55;0.70;;;;;;;;;;5024524;28;20049;-62
2023/09/01 02:25:46;;;;;;;0.85;0.70;;;;;;;;;;5022805;28;20052;-62
2023/09/01 02:28:12;;;;;;;0.50;0.50;;;;;;;;;;5024360;28;20131;-62
2023/09/01 02:30:38;;;;;;;0.98;0.90;;;;;;;;;;5023996;28;20088;-61
2023/09/01 02:33:05;;;;;;;0.95;0.85;;;;;;;;;;5022810;28;20053;-61
2023/09/01 02:35:31;;;;;;;0.80;0.80;;;;;;;;;;5023935;28;20045;-61
2023/09/01 02:37:57;;;;;;;0.68;0.68;;;;;;;;;;5023514;28;20116;-61
2023/09/01 02:40:24;;;;;;;1.23;0.82;;;;;;;;;;5022260;28;20493;-61
2023/09/01 02:42:53;;;;;;;1.13;0.73;;;;;;;;;;5023447;28;20041;-61
2023/09/01 02:45:20;;;;;;;0.70;0.70;;;;;;;;;;5023956;28;20046;-61
2023/09/01 02:47:46;;;;;;;1.65;1.08;;;;;;;;;;5027017;28;20063;-61
2023/09/01 02:50:12;;;;;;;1.10;0.80;;;;;;;;;;5026669;28;20049;-61
2023/09/01 02:52:38;;;;;;;1.08;0.82;;;;;;;;;;5027338;28;20042;-61
2023/09/01 02:55:06;;;;;;;0.52;0.52;;;;;;;;;;5027362;28;20037;-61
2023/09/01 02:57:32;;;;;;;0.73;0.73;;;;;;;;;;5024543;28;20088;-61
2023/09/01 02:59:58;;;;;;;1.25;0.95;;;;;;;;;;5026262;28;20033;-61
2023/09/01 03:02:24;;;;;;;0.50;0.50;;;;;;;;;;5026494;28;20055;-61
2023/09/01 03:04:56;;;;;;;0.60;0.60;;;;;;;;;;5025249;28;20042;-61
2023/09/01 03:07:24;;;;;;;0.70;0.70;;;;;;;;;;5026225;28;20061;-61
2023/09/01 03:09:50;;;;;;;0.55;0.55;;;;;;;;;;5025496;28;20063;-61
2023/09/01 03:12:16;;;;;;;0.98;0.88;;;;;;;;;;5026268;28;20042;-61
2023/09/01 03:14:42;;;;;;;0.90;0.73;;;;;;;;;;5024380;28;20477;-61
2023/09/01 03:17:08;;;;;;;0.60;0.60;;;;;;;;;;5026096;28;20052;-61
2023/09/01 03:19:34;;;;;;;0.70;0.70;;;;;;;;;;5027228;28;20045;-61
2023/09/01 03:22:00;;;;;;;0.93;0.60;;;;;;;;;;5025059;28;20565;-61
2023/09/01 03:24:27;;;;;;;0.50;0.50;;;;;;;;;;5025902;28;20048;-61
2023/09/01 03:26:53;;;;;;;1.13;0.80;;;;;;;;;;5025112;28;20189;-61
2023/09/01 03:29:19;;;;;;;0.77;0.77;;;;;;;;;;5023961;28;20046;-62
2023/09/01 03:31:45;;;;;;;0.55;0.55;;;;;;;;;;5025188;28;20037;-62
2023/09/01 03:34:11;;;;;;;0.80;0.57;;;;;;;;;;5026624;28;20489;-62
2023/09/01 03:36:37;;;;;;;0.55;0.55;;;;;;;;;;5025935;28;20041;-61
2023/09/01 03:39:07;;;;;;;0.57;0.57;;;;;;;;;;5025864;28;20037;-61
2023/09/01 03:41:33;;;;;;;0.73;0.60;;;;;;;;;;5024994;28;20037;-61
2023/09/01 03:43:59;;;;;;;0.60;0.60;;;;;;;;;;5024623;28;20349;-61
2023/09/01 03:46:25;;;;;;;0.50;0.50;;;;;;;;;;5025969;28;20580;-61
2023/09/01 03:48:51;;;;;;;0.85;0.85;;;;;;;;;;5025512;28;20041;-61
2023/09/01 03:51:17;;;;;;;0.70;0.68;;;;;;;;;;5025374;28;20113;-61
2023/09/01 03:53:44;;;;;;;0.80;0.60;;;;;;;;;;5024863;28;20084;-61
2023/09/01 03:56:13;;;;;;;1.65;0.80;;;;;;;;;;5023344;28;20067;-61
2023/09/01 03:58:40;;;;;;;0.50;0.50;;;;;;;;;;5022833;28;20517;-61
2023/09/01 04:01:08;;;;;;;0.60;0.60;;;;;;;;;;5025033;28;20069;-61
2023/09/01 04:03:38;;;;;;;0.60;0.60;;;;;;;;;;5024567;28;20132;-61
2023/09/01 04:06:05;;;;;;;0.50;0.50;;;;;;;;;;5021716;28;20531;-61
2023/09/01 04:08:31;;;;;;;0.70;0.60;;;;;;;;;;5022583;28;20033;-61
2023/09/01 04:10:57;;;;;;;0.50;0.50;;;;;;;;;;5022370;28;20048;-61
2023/09/01 04:13:23;;;;;;;0.30;0.30;;;;;;;;;;5024831;28;20030;-61
2023/09/01 04:15:51;;;;;;;0.40;0.40;;;;;;;;;;5023484;28;20095;-61
2023/09/01 04:18:17;;;;;;;0.82;0.60;;;;;;;;;;5025104;28;20073;-61
2023/09/01 04:20:49;;;;;;;0.52;0.52;;;;;;;;;;5023819;28;20049;-61
2023/09/01 04:23:15;;;;;;;;;;;;;;;;;;5024848;28;20056;-61
2023/09/01 04:25:43;;;;;;;0.55;0.55;;;;;;;;;;5022307;28;19925;-61
2023/09/01 04:28:10;;;;;;;0.75;0.60;;;;;;;;;;5025715;28;20048;-61
2023/09/01 04:30:36;;;;;;;0.70;0.70;;;;;;;;;;5025427;28;20034;-61
2023/09/01 04:33:04;;;;;;;0.98;0.77;;;;;;;;;;5025620;28;20069;-61
2023/09/01 04:35:30;;;;;;;0.68;0.68;;;;;;;;;;5025686;28;20045;-61
2023/09/01 04:37:56;;;;;;;0.77;0.50;;;;;;;;;;5026369;28;20484;-61
2023/09/01 04:40:22;;;;;;;2.05;0.45;;;;;;;;;;5026154;28;20091;-61
2023/09/01 04:42:48;;;;;;;0.52;0.50;;;;;;;;;;5026069;28;20519;-61
2023/09/01 04:45:14;;;;;;;0.30;0.30;;;;;;;;;;5027002;28;20057;-61
2023/09/01 04:47:40;;;;;;;0.55;0.50;;;;;;;;;;5025963;28;20064;-61
2023/09/01 04:50:07;;;;;;;0.50;0.50;;;;;;;;;;5025606;28;20050;-61
2023/09/01 04:52:33;;;;;;;0.63;0.40;;;;;;;;;;5026719;28;20413;-61
2023/09/01 04:54:59;;;;;;;0.73;0.70;;;;;;;;;;5026154;28;20103;-61
2023/09/01 04:57:25;;;;;;;0.45;0.40;;;;;;;;;;5026510;28;20046;-61
2023/09/01 04:59:51;;;;;;;0.50;0.50;;;;;;;;;;5025921;28;20033;-61
2023/09/01 05:02:17;;;;;;;0.80;0.50;;;;;;;;;;5025921;28;20103;-61
2023/09/01 05:04:43;;;;;;;0.50;0.32;;;;;;;;;;5025573;28;20516;-61
2023/09/01 05:07:09;;;;;;;0.40;0.40;;;;;;;;;;5025296;28;20745;-61
2023/09/01 05:09:35;;;;;;;0.90;0.40;;;;;;;;;;5024935;28;20145;-61
2023/09/01 05:12:01;;;;;;;1.50;0.68;;;;;;;;;;5025660;28;20556;-61
2023/09/01 05:14:27;;;;;;;0.43;0.43;;;;;;;;;;5025499;28;20045;-61
2023/09/01 05:16:54;;;;;;;1.00;0.52;;;;;;;;;;5024602;28;20041;-61
2023/09/01 05:19:20;;;;;;;0.50;0.47;;;;;;;;;;5024989;28;20301;-61
2023/09/01 05:21:48;;;;;;;1.52;0.70;;;;;;;;;;5024969;28;20516;-61
2023/09/01 05:24:14;;;;;;;2.28;0.65;;;;;;;;;;5025834;28;20049;-61
2023/09/01 05:26:40;;;;;;;0.40;0.40;;;;;;;;;;5024971;28;20037;-61
2023/09/01 05:29:06;;;;;;;0.50;0.50;;;;;;;;;;5025252;28;20146;-61
2023/09/01 05:31:32;;;;;;;0.88;0.40;;;;;;;;;;5024139;28;20425;-61
2023/09/01 05:33:58;;;;;;;0.47;0.45;;;;;;;;;;5024825;28;20481;-61
2023/09/01 05:36:24;;;;;;;0.20;0.20;;;;;;;;;;5025133;28;20072;-61
2023/09/01 05:38:50;;;;;;;0.50;0.50;;;;;;;;;;5024982;28;20048;-61
2023/09/01 05:41:16;;;;;;;0.40;0.40;;;;;;;;;;5025584;28;20061;-61
2023/09/01 05:43:42;;;;;;;0.45;0.38;;;;;;;;;;5024489;28;20041;-61
2023/09/01 05:46:08;;;;;;;0.20;0.20;;;;;;;;;;5021928;28;20456;-61
2023/09/01 05:48:36;;;;;;;0.35;0.35;;;;;;;;;;5024110;28;20056;-62
2023/09/01 05:51:02;;;;;;;0.30;0.30;;;;;;;;;;5022346;28;20049;-62
2023/09/01 05:53:28;;;;;;;1.23;0.40;;;;;;;;;;5024918;28;20117;-62
2023/09/01 05:55:55;;;;;;;0.80;0.50;;;;;;;;;;5023467;28;20132;-62
2023/09/01 05:58:21;;;;;;;0.65;0.45;;;;;;;;;;5023407;28;20049;-61
2023/09/01 06:00:47;;;;;;;0.30;0.30;;;;;;;;;;5022146;28;20111;-61
2023/09/01 06:03:13;;;;;;;0.50;0.30;;;;;;;;;;5025134;28;20044;-62
2023/09/01 06:05:39;;;;;;;0.28;0.25;;;;;;;;;;5023057;28;20041;-62
2023/09/01 06:08:05;;;;;;;2.47;0.40;;;;;;;;;;5024687;28;20099;-62
2023/09/01 06:10:31;;;;;;;0.20;0.20;;;;;;;;;;5024323;28;20130;-62
2023/09/01 06:12:57;;;;;;;0.20;0.20;;;;;;;;;;5023899;28;20148;-62
2023/09/01 06:15:23;;;;;;;0.20;0.20;;;;;;;;;;5024689;28;20124;-61
2023/09/01 06:17:49;;;;;;;0.20;0.20;;;;;;;;;;5023492;28;20444;-61
2023/09/01 06:20:15;;;;;;;0.30;0.30;;;;;;;;;;5022927;28;20045;-61
2023/09/01 06:22:41;;;;;;;0.15;0.15;;;;;;;;;;5022133;28;20348;-61
2023/09/01 06:25:07;;;;;;;0.10;0.10;;;;;;;;;;5024176;28;20087;-61
2023/09/01 06:27:37;;;;;;;0.20;0.20;;;;;;;;;;5025114;28;20851;-61
2023/09/01 06:30:04;;;;;;;0.15;0.10;;;;;;;;;;5025253;28;20041;-61
2023/09/01 06:32:30;;;;;;;0.20;0.20;;;;;;;;;;5024297;28;20099;-61
2023/09/01 06:34:56;;;;;;;0.10;0.10;;;;;;;;;;5024150;28;20069;-62
2023/09/01 06:37:22;;;;;;;0.10;0.10;;;;;;;;;;5025129;28;20068;-62
2023/09/01 06:39:48;;;;;;;0.68;0.10;;;;;;;;;;5024050;28;20042;-62
2023/09/01 06:42:14;;;;;;;0.08;0.08;;;;;;;;;;5024535;28;20053;-62
2023/09/01 06:44:40;;;;;;;0.88;0.10;;;;;;;;;;5027673;28;20145;-62
2023/09/01 06:47:06;;;;;;;0.05;0.05;;;;;;;;;;5024519;28;20050;-62
2023/09/01 06:49:32;;;;;;;0.20;0.10;;;;;;;;;;5027775;28;20049;-62
2023/09/01 06:51:58;;;;;;;0.10;0.10;;;;;;;;;;5034948;28;20075;-62
2023/09/01 06:54:25;;;;;;;0.20;0.10;;;;;;;;;;5035100;28;20057;-62
2023/09/01 06:56:51;;;;;;;0.20;0.20;;;;;;;;;;5036055;28;20228;-62
2023/09/01 06:59:17;;;;;;;0.47;0.30;;;;;;;;;;5027913;28;20131;-62
2023/09/01 07:01:43;;;;;;;0.20;0.17;;;;;;;;;;5018933;28;20061;-62
2023/09/01 07:04:09;;;;;;;0.50;0.30;;;;;;;;;;5037340;28;20045;-61
2023/09/01 07:06:35;;;;;;;0.55;0.40;;;;;;;;;;5024333;28;20041;-61
2023/09/01 07:09:01;;;;;;;1.10;0.45;;;;;;;;;;5023343;28;20029;-61
2023/09/01 07:11:27;;;;;;;0.40;0.40;;;;;;;;;;5023907;28;20044;-61
2023/09/01 07:13:53;;;;;;;0.95;0.57;;;;;;;;;;5023085;28;20495;-61
2023/09/01 07:16:19;;;;;;;0.60;0.50;;;;;;;;;;5022281;28;20436;-61
2023/09/01 07:18:46;;;;;;;0.60;0.47;;;;;;;;;;5023400;28;20037;-62
2023/09/01 07:21:12;;;;;;;0.90;0.75;;;;;;;;;;5023374;28;20083;-62
2023/09/01 07:23:38;;;;;;;1.27;0.60;;;;;;;;;;5023553;28;20045;-62
2023/09/01 07:26:06;;;;;;;0.32;0.32;;;;;;;;;;5023524;28;20048;-62
2023/09/01 07:28:32;;;;;;;0.50;0.50;;;;;;;;;;5019207;28;20734;-62
2023/09/01 07:30:58;;;;;;;0.30;0.30;;;;;;;;;;5023551;28;20064;-62
2023/09/01 07:33:24;;;;;;;0.50;0.50;;;;;;;;;;5024110;28;20046;-63
2023/09/01 07:35:51;;;;;;;0.40;0.40;;;;;;;;;;5022114;28;20056;-63
2023/09/01 07:38:17;;;;;;;0.40;0.40;;;;;;;;;;5023975;28;20052;-63
2023/09/01 07:40:44;;;;;;;0.50;0.28;;;;;;;;;;5026581;28;20063;-63
2023/09/01 07:43:10;;;;;;;1.20;0.60;;;;;;;;;;5024838;28;20532;-63
2023/09/01 07:45:36;;;;;;;0.38;0.38;;;;;;;;;;5026316;28;20060;-63
2023/09/01 07:48:03;;;;;;;0.60;0.30;;;;;;;;;;5024116;28;20517;-63
2023/09/01 07:50:30;;;;;;;0.45;0.45;;;;;;;;;;5027114;28;20421;-63
2023/09/01 07:52:57;;;;;;;0.30;0.30;;;;;;;;;;5026840;28;20127;-63
2023/09/01 07:55:23;;;;;;;0.95;0.40;;;;;;;;;;5027590;28;20405;-63
2023/09/01 07:57:49;;;;;;;1.00;0.60;;;;;;;;;;5027127;28;20112;-63
2023/09/01 08:00:17;;;;;;;0.40;0.40;;;;;;;;;;5026925;28;20432;-63
2023/09/01 08:02:43;;;;;;;0.57;0.40;;;;;;;;;;5025015;28;20070;-62
2023/09/01 08:05:09;;;;;;;0.50;0.50;;;;;;;;;;5025737;28;20060;-62
2023/09/01 08:07:36;;;;;;;0.40;0.40;;;;;;;;;;5024833;28;20067;-62
2023/09/01 08:10:02;;;;;;;0.38;0.25;;;;;;;;;;5020758;28;20438;-62
2023/09/01 08:12:29;;;;;;;0.45;0.43;;;;;;;;;;5025444;28;20405;-62
2023/09/01 08:14:55;;;;;;;0.85;0.35;;;;;;;;;;5026620;28;20068;-62
2023/09/01 08:17:21;;;;;;;1.13;0.82;;;;;;;;;;5023411;28;20127;-62
2023/09/01 08:19:48;;;;;;;0.50;0.50;;;;;;;;;;5017365;28;20075;-62
2023/09/01 08:22:14;;;;;;;0.50;0.50;;;;;;;;;;5020486;28;20050;-62
2023/09/01 08:24:40;;;;;;;0.85;0.50;;;;;;;;;;5024784;28;20106;-62
2023/09/01 08:27:06;;;;;;;0.30;0.30;;;;;;;;;;5025569;28;20037;-61
2023/09/01 08:29:32;;;;;;;0.38;0.30;;;;;;;;;;5024298;28;20238;-62
2023/09/01 08:32:01;;;;;;;0.80;0.50;;;;;;;;;;5024621;28;20033;-61
2023/09/01 08:34:31;;;;;;;1.75;0.50;;;;;;;;;;5023935;28;20192;-61
2023/09/01 08:36:57;;;;;;;0.40;0.40;;;;;;;;;;5025122;28;20132;-61
2023/09/01 08:39:24;;;;;;;0.95;0.40;;;;;;;;;;5020714;28;20491;-61
2023/09/01 08:41:52;;;;;;;0.40;0.38;;;;;;;;;;5025772;28;20099;-61
2023/09/01 08:44:23;;;;;;;0.40;0.40;;;;;;;;;;5025816;28;20069;-61
2023/09/01 08:46:50;;;;;;;0.73;0.30;;;;;;;;;;5024444;28;20532;-61
2023/09/01 08:49:17;;;;;;;0.20;0.20;;;;;;;;;;5026873;28;20049;-61
2023/09/01 08:51:44;;;;;;;0.45;0.25;;;;;;;;;;5026975;28;20038;-61
2023/09/01 08:54:10;;;;;;;0.20;0.20;;;;;;;;;;5028252;28;20547;-62
2023/09/01 08:56:36;;;;;;;0.38;0.30;;;;;;;;;;5029324;28;20091;-61
2023/09/01 08:59:02;;;;;;;0.32;0.30;;;;;;;;;;5024177;28;20049;-61
2023/09/01 09:01:30;;;;;;;1.58;0.47;;;;;;;;;;5024881;28;21588;-61
2023/09/01 09:03:57;;;;;;;0.20;0.20;;;;;;;;;;5026161;28;20126;-61
2023/09/01 09:06:33;;;;;;;0.40;0.30;;;;;;;;;;5026227;28;20041;-61
2023/09/01 09:09:04;;;;;;;0.35;0.32;;;;;;;;;;5025505;28;20070;-59
2023/09/01 09:11:30;;;;;;;0.28;0.20;;;;;;;;;;5026053;28;20386;-60
2023/09/01 09:13:56;;;;;;;0.57;0.32;;;;;;;;;;5024474;28;20049;-59
2023/09/01 09:16:22;;;;;;;0.55;0.40;;;;;;;;;;5026265;28;20043;-58
2023/09/01 09:18:48;;;;;;;0.38;0.38;;;;;;;;;;5023043;28;20029;-64
2023/09/01 09:21:30;;;;;;;0.30;0.30;;;;;;;;;;5025383;28;20049;-68
2023/09/01 09:23:58;;;;;;;0.40;0.38;;;;;;;;;;5025403;28;20069;-61
2023/09/01 09:26:27;;;;;;;1.65;0.60;;;;;;;;;;5026331;28;20049;-61
2023/09/01 09:28:53;;;;;;;0.63;0.40;;;;;;;;;;5022368;28;20440;-61
2023/09/01 09:31:30;;;;;;;0.25;0.25;;;;;;;;;;5023158;28;20045;-61
2023/09/01 09:33:56;;;;;;;1.40;0.40;;;;;;;;;;5020636;28;20197;-61
2023/09/01 09:36:32;;;;;;;0.28;0.28;;;;;;;;;;5023065;28;20045;-61
2023/09/01 09:38:58;;;;;;;0.95;0.30;;;;;;;;;;5020592;28;20448;-61
2023/09/01 09:41:24;;;;;;;0.50;0.50;;;;;;;;;;5022579;28;20481;-61
2023/09/01 09:43:50;;;;;;;0.35;0.30;;;;;;;;;;5023527;28;20056;-61
2023/09/01 09:46:19;;;;;;;1.63;0.60;;;;;;;;;;5019878;28;20081;-61
2023/09/01 09:48:45;;;;;;;0.40;0.40;;;;;;;;;;5017184;28;20068;-61
2023/09/01 09:51:16;;;;;;;0.52;0.40;;;;;;;;;;5024516;28;20040;-61
2023/09/01 09:53:44;;;;;;;0.90;0.32;;;;;;;;;;5022381;28;20988;-61
2023/09/01 09:56:17;;;;;;;0.57;0.30;;;;;;;;;;5017600;28;20460;-61
2023/09/01 09:58:45;;;;;;;0.93;0.57;;;;;;;;;;5023075;28;20107;-62
2023/09/01 10:01:15;;;;;;;0.93;0.52;;;;;;;;;;5024176;28;20045;-61
2023/09/01 10:03:41;;;;;;;0.70;0.40;;;;;;;;;;5021294;28;20055;-61
2023/09/01 10:06:08;;;;;;;1.20;0.50;;;;;;;;;;5022381;28;20057;-62
2023/09/01 10:08:34;;;;;;;0.70;0.52;;;;;;;;;;5021305;28;20128;-63
2023/09/01 10:11:02;;;;;;;0.20;0.20;;;;;;;;;;5025072;28;20073;-62
2023/09/01 10:13:28;;;;;;;0.20;0.20;;;;;;;;;;5016540;28;20313;-62
2023/09/01 10:15:55;;;;;;;0.30;0.30;;;;;;;;;;5016045;28;20680;-63
2023/09/01 10:18:21;;;;;;;0.30;0.30;;;;;;;;;;5012743;28;20962;-61
2023/09/01 10:20:48;;;;;;;0.30;0.30;;;;;;;;;;5013257;28;20552;-61
2023/09/01 10:23:14;;;;;;;0.40;0.35;;;;;;;;;;5015108;28;20049;-61
2023/09/01 10:25:40;;;;;;;0.40;0.40;;;;;;;;;;5020284;28;20049;-62
2023/09/01 10:28:07;;;;;;;0.30;0.20;;;;;;;;;;5025419;28;20037;-61
2023/09/01 10:30:38;;;;;;;0.93;0.30;;;;;;;;;;5013538;28;20049;-61
2023/09/01 10:33:07;;;;;;;0.45;0.40;;;;;;;;;;5026329;28;20049;-61
2023/09/01 10:35:40;;;;;;;0.77;0.40;;;;;;;;;;5025188;28;20462;-61
2023/09/01 10:38:20;;;;;;;1.52;0.75;;;;;;;;;;5024385;28;20095;-61
2023/09/01 10:40:47;;;;;;;0.35;0.35;;;;;;;;;;5016800;28;20041;-61
2023/09/01 10:43:15;;;;;;;0.95;0.52;;;;;;;;;;5025718;28;20079;-61
2023/09/01 10:45:41;;;;;;;0.73;0.57;;;;;;;;;;5023186;28;20110;-61
2023/09/01 10:48:11;;;;;;;0.85;0.50;;;;;;;;;;5023777;28;20088;-61
2023/09/01 10:50:40;;;;;;;0.65;0.43;;;;;;;;;;5024856;28;20045;-61
2023/09/01 10:53:25;;;;;;;0.68;0.68;;;;;;;;;;5024902;28;20602;-61
2023/09/01 10:56:07;;;;;;;1.05;0.40;;;;;;;;;;5025577;28;20056;-61
2023/09/01 10:58:40;;;;;;;0.38;0.35;;;;;;;;;;5024418;28;20068;-61
2023/09/01 11:01:24;;;;;;;0.43;0.30;;;;;;;;;;5017267;28;20128;-61
2023/09/01 11:03:50;;;;;;;1.50;0.55;;;;;;;;;;5024537;28;20045;-61
2023/09/01 11:06:16;;;;;;;0.30;0.30;;;;;;;;;;5025369;28;20121;-61
2023/09/01 11:08:56;;;;;;;0.30;0.30;;;;;;;;;;5023925;28;20448;-61
2023/09/01 11:11:23;;;;;;;0.95;0.43;;;;;;;;;;5028128;28;20052;-61
2023/09/01 11:13:55;;;;;;;0.30;0.30;;;;;;;;;;5027858;28;20034;-61
2023/09/01 11:16:21;;;;;;;0.70;0.50;;;;;;;;;;5021467;28;20504;-61
2023/09/01 11:18:58;;;;;;;0.57;0.40;;;;;;;;;;5029426;28;20095;-61
2023/09/01 11:21:24;;;;;;;0.68;0.40;;;;;;;;;;5020955;28;20117;-61
2023/09/01 11:23:56;;;;;;;0.65;0.43;;;;;;;;;;5028990;28;20091;-61
2023/09/01 11:26:22;;;;;;;0.57;0.50;;;;;;;;;;5028759;28;20045;-61
2023/09/01 11:28:48;;;;;;;1.27;0.50;;;;;;;;;;5027045;28;20549;-61
2023/09/01 11:31:14;;;;;;;0.75;0.55;;;;;;;;;;5023881;28;20069;-61
2023/09/01 11:33:42;;;;;;;1.70;0.65;;;;;;;;;;5029064;28;20578;-62
2023/09/01 11:36:11;;;;;;;1.25;0.70;;;;;;;;;;5028030;28;20053;-62
2023/09/01 11:38:37;;;;;;;0.80;0.50;;;;;;;;;;5020104;28;20041;-62
2023/09/01 11:41:04;;;;;;;0.65;0.60;;;;;;;;;;5021100;28;20045;-61
2023/09/01 11:43:30;;;;;;;1.33;0.63;;;;;;;;;;5025343;28;20505;-61
2023/09/01 11:45:56;;;;;;;1.27;0.90;;;;;;;;;;5022635;28;20532;-61
2023/09/01 11:48:26;;;;;;;0.95;0.70;;;;;;;;;;5021372;28;20649;-61
2023/09/01 11:50:57;;;;;;;1.77;0.80;;;;;;;;;;5019026;28;20582;-61
2023/09/01 11:53:23;;;;;;;1.00;0.88;;;;;;;;;;5020051;28;20056;-61
2023/09/01 11:55:49;;;;;;;0.70;0.60;;;;;;;;;;5024098;28;20041;-61
2023/09/01 11:58:15;;;;;;;2.38;0.80;;;;;;;;;;5025606;28;20064;-61
2023/09/01 12:00:41;;;;;;;1.33;0.50;;;;;;;;;;5021003;28;20079;-60
2023/09/01 12:03:08;;;;;;;2.20;0.88;;;;;;;;;;5016908;28;20045;-61
2023/09/01 12:05:34;;;;;;;1.80;0.88;;;;;;;;;;5023257;28;20084;-61
2023/09/01 12:08:01;;;;;;;1.20;1.00;;;;;;;;;;5023254;28;20540;-61
2023/09/01 12:10:27;;;;;;;3.15;1.00;;;;;;;;;;5024939;28;20595;-61
2023/09/01 12:13:02;;;;;;;1.13;1.00;;;;;;;;;;5025538;28;20055;-61
2023/09/01 12:15:28;;;;;;;0.95;0.80;;;;;;;;;;5024250;28;20457;-61
2023/09/01 12:17:54;;;;;;;1.67;0.93;;;;;;;;;;5014187;28;20037;-61
2023/09/01 12:20:20;;;;;;;1.13;0.60;;;;;;;;;;5022600;28;20500;-61
2023/09/01 12:22:47;;;;;;;0.90;0.50;;;;;;;;;;5021850;28;20041;-61
2023/09/01 12:25:14;;;;;;;1.17;0.93;;;;;;;;;;5025723;28;20045;-61
2023/09/01 12:27:40;;;;;;;1.33;0.93;;;;;;;;;;5022949;28;20412;-61
2023/09/01 12:30:06;;;;;;;0.88;0.73;;;;;;;;;;5024151;28;20052;-62
2023/09/01 12:32:32;;;;;;;1.23;0.60;;;;;;;;;;5017887;28;20048;-62
2023/09/01 12:34:58;;;;;;;1.20;0.60;;;;;;;;;;5019551;28;20033;-61
2023/09/01 12:37:25;;;;;;;0.70;0.60;;;;;;;;;;5025672;28;20045;-62
2023/09/01 12:39:51;;;;;;;1.08;0.80;;;;;;;;;;5021092;28;20046;-62
2023/09/01 12:42:16;;;;;;;0.82;0.60;;;;;;;;;;5026186;28;20049;-62
2023/09/01 12:44:42;;;;;;;1.38;0.70;;;;;;;;;;5027396;28;20045;-62
2023/09/01 12:47:09;;;;;;;1.77;0.80;;;;;;;;;;5027481;28;20053;-62
2023/09/01 12:49:36;;;;;;;1.67;1.02;;;;;;;;;;5027804;28;20064;-61
2023/09/01 12:52:02;;;;;;;1.73;1.10;;;;;;;;;;5026464;28;20053;-61
2023/09/01 12:54:28;;;;;;;1.30;0.93;;;;;;;;;;5026197;28;20045;-61
2023/09/01 12:56:54;;;;;;;1.23;0.80;;;;;;;;;;5025920;28;20488;-61
2023/09/01 12:59:20;;;;;;;1.10;0.80;;;;;;;;;;5023357;28;20037;-61
2023/09/01 13:01:46;;;;;;;0.85;0.70;;;;;;;;;;5017176;28;20037;-61
2023/09/01 13:04:12;;;;;;;1.13;0.80;;;;;;;;;;5018979;28;20488;-61
2023/09/01 13:06:38;;;;;;;1.63;0.90;;;;;;;;;;5011483;28;20407;-61
2023/09/01 13:09:04;;;;;;;1.45;0.80;;;;;;;;;;5022489;28;20061;-61
2023/09/01 13:11:30;;;;;;;2.75;0.80;;;;;;;;;;5018831;28;20148;-62
2023/09/01 13:13:56;;;;;;;2.92;1.00;;;;;;;;;;5022119;28;20508;-58
2023/09/01 13:16:28;;;;;;;1.15;1.05;;;;;;;;;;5019437;28;20033;-57
2023/09/01 13:18:54;;;;;;;1.25;0.90;;;;;;;;;;5020202;28;20073;-58
2023/09/01 13:21:20;;;;;;;1.20;1.00;;;;;;;;;;5021053;28;20079;-58
2023/09/01 13:23:47;;;;;;;1.25;0.90;;;;;;;;;;5018068;28;20111;-58
2023/09/01 13:26:13;;;;;;;0.80;0.80;;;;;;;;;;5021013;28;20124;-58
2023/09/01 13:28:39;;;;;;;0.90;0.60;;;;;;;;;;5021605;28;20064;-58
2023/09/01 13:31:05;;;;;;;1.48;0.90;;;;;;;;;;5018437;28;20049;-58
2023/09/01 13:33:31;;;;;;;1.55;0.77;;;;;;;;;;5021149;28;20520;-58
2023/09/01 13:35:57;;;;;;;0.80;0.70;;;;;;;;;;5017322;28;20410;-58
2023/09/01 13:38:23;;;;;;;0.82;0.60;;;;;;;;;;5016575;28;20091;-58
2023/09/01 13:40:56;;;;;;;1.70;0.70;;;;;;;;;;5022867;28;20048;-59
2023/09/01 13:43:22;;;;;;;1.35;0.95;;;;;;;;;;5019143;28;20136;-58
2023/09/01 13:45:48;;;;;;;1.20;1.00;;;;;;;;;;5023611;28;20120;-57
2023/09/01 13:48:14;;;;;;;1.02;0.93;;;;;;;;;;5020671;28;20498;-57
2023/09/01 13:50:40;;;;;;;2.40;1.20;;;;;;;;;;5022262;28;20046;-57
2023/09/01 13:53:06;;;;;;;2.08;0.90;;;;;;;;;;5019247;28;20115;-58
2023/09/01 13:55:32;;;;;;;1.08;0.70;;;;;;;;;;5020380;28;20041;-58
2023/09/01 13:57:58;;;;;;;1.48;1.00;;;;;;;;;;5015795;28;20049;-57
2023/09/01 14:00:24;;;;;;;0.65;0.60;;;;;;;;;;5022556;28;20135;-57
2023/09/01 14:02:50;;;;;;;1.27;0.80;;;;;;;;;;5017058;28;20130;-57
2023/09/01 14:05:16;;;;;;;1.20;0.90;;;;;;;;;;5016190;28;20448;-58
2023/09/01 14:07:42;;;;;;;5.05;1.17;;;;;;;;;;5013291;28;20044;-57
2023/09/01 14:10:08;;;;;;;1.50;1.05;;;;;;;;;;5017372;28;20033;-58
2023/09/01 14:12:34;;;;;;;0.68;0.68;;;;;;;;;;5015555;28;20041;-57
2023/09/01 14:15:00;;;;;;;0.82;0.82;;;;;;;;;;5018657;28;20124;-58
2023/09/01 14:17:26;;;;;;;1.27;1.02;;;;;;;;;;5021873;28;20495;-58
2023/09/01 14:19:52;;;;;;;1.13;0.65;;;;;;;;;;5018175;28;20088;-59
2023/09/01 14:22:18;;;;;;;0.65;0.60;;;;;;;;;;5020781;28;20080;-58
2023/09/01 14:24:44;;;;;;;1.05;0.60;;;;;;;;;;5017301;28;20045;-58
2023/09/01 14:27:10;;;;;;;1.30;0.90;;;;;;;;;;5023753;28;20133;-58
2023/09/01 14:29:36;;;;;;;0.70;0.70;;;;;;;;;;5019274;28;20576;-58
2023/09/01 14:32:04;;;;;;;1.17;0.88;;;;;;;;;;5017284;28;20045;-57
2023/09/01 14:34:30;;;;;;;0.63;0.63;;;;;;;;;;5018353;28;20120;-58
2023/09/01 14:36:56;;;;;;;0.70;0.63;;;;;;;;;;5018020;28;20040;-58
2023/09/01 14:39:22;;;;;;;0.70;0.63;;;;;;;;;;5015173;28;20482;-58
2023/09/01 14:41:48;;;;;;;0.40;0.40;;;;;;;;;;5012101;28;20052;-58